Time;durP1;ratioP1;P1;durP2;ratioP2;P2;SDS_P1;SDS_P2;PMS_P1;PMS_P2;Temp;Humidity;BMP_temperature;BMP_pressure;BME280_temperature;BME280_humidity;BME280_pressure;Samples;Min_cycle;Max_cycle;Signal;HPM_P1;HPM_P2
2023/01/07 00:01:01;;;;;;;27.17;12.27;;;-4.30;99.90;;;;;;5071286;28;20602;-68
2023/01/07 00:03:30;;;;;;;38.33;11.48;;;-4.30;99.90;;;;;;5054060;28;20053;-66
2023/01/07 00:06:01;;;;;;;27.98;11.77;;;-4.30;99.90;;;;;;5054289;28;20045;-67
2023/01/07 00:08:30;;;;;;;26.75;10.80;;;-4.20;99.90;;;;;;5070258;28;20143;-66
2023/01/07 00:11:01;;;;;;;32.80;10.65;;;-4.20;99.90;;;;;;5065671;28;20057;-67
2023/01/07 00:13:29;;;;;;;30.75;10.38;;;-4.20;99.90;;;;;;5050179;28;20047;-67
2023/01/07 00:15:59;;;;;;;30.50;10.23;;;-4.20;99.90;;;;;;5053681;28;20068;-66
2023/01/07 00:18:26;;;;;;;26.02;11.07;;;-4.20;99.90;;;;;;5072697;28;20060;-66
2023/01/07 00:20:58;;;;;;;27.95;11.02;;;-4.20;99.90;;;;;;5065253;28;20036;-67
2023/01/07 00:23:27;;;;;;;32.30;9.82;;;-4.30;99.90;;;;;;5063092;28;20505;-67
2023/01/07 00:26:01;;;;;;;31.58;10.55;;;-4.30;99.90;;;;;;5059487;28;20048;-67
2023/01/07 00:28:28;;;;;;;44.05;12.32;;;-4.30;99.90;;;;;;5054348;28;20100;-68
2023/01/07 00:31:00;;;;;;;43.55;12.27;;;-4.40;99.90;;;;;;5053426;28;20586;-66
2023/01/07 00:33:28;;;;;;;25.10;10.77;;;-4.40;99.90;;;;;;5056865;28;20094;-69
2023/01/07 00:36:07;;;;;;;31.80;10.45;;;-4.50;99.90;;;;;;5055224;28;20043;-67
2023/01/07 00:38:35;;;;;;;24.08;9.32;;;-4.50;99.90;;;;;;5068435;28;20066;-67
2023/01/07 00:41:02;;;;;;;19.70;9.05;;;-4.50;99.90;;;;;;5051123;28;20048;-68
2023/01/07 00:43:30;;;;;;;19.48;9.75;;;-4.60;99.90;;;;;;5064919;28;20378;-68
2023/01/07 00:45:58;;;;;;;17.38;9.45;;;-4.60;99.90;;;;;;5052692;28;20044;-67
2023/01/07 00:48:25;;;;;;;19.00;8.32;;;-4.60;99.90;;;;;;5065743;28;20049;-67
2023/01/07 00:50:54;;;;;;;28.02;10.27;;;-4.60;99.90;;;;;;5058136;28;20041;-67
2023/01/07 00:53:28;;;;;;;20.17;9.27;;;-4.70;99.90;;;;;;5055389;28;20532;-68
2023/01/07 00:55:56;;;;;;;21.55;9.57;;;-4.70;99.90;;;;;;5051163;28;20098;-67
2023/01/07 00:58:25;;;;;;;24.60;9.90;;;-4.80;99.90;;;;;;5057716;28;20085;-71
2023/01/07 01:00:56;;;;;;;24.23;11.60;;;-4.90;99.90;;;;;;5054926;28;20082;-71
2023/01/07 01:03:24;;;;;;;20.67;9.82;;;-4.90;99.90;;;;;;5063476;28;20059;-71
2023/01/07 01:05:51;;;;;;;20.27;10.13;;;-5.00;99.90;;;;;;5056610;28;20037;-71
2023/01/07 01:08:20;;;;;;;23.05;10.15;;;-5.00;99.90;;;;;;5062188;28;20044;-71
2023/01/07 01:10:49;;;;;;;25.33;10.90;;;-4.90;99.90;;;;;;5066591;28;20054;-71
2023/01/07 01:13:18;;;;;;;29.20;13.05;;;-4.90;99.90;;;;;;5071370;28;20052;-73
2023/01/07 01:15:48;;;;;;;28.13;12.38;;;-4.90;99.90;;;;;;5048913;28;20048;-71
2023/01/07 01:18:16;;;;;;;25.35;10.70;;;-4.80;99.90;;;;;;5064082;28;20057;-70
2023/01/07 01:20:44;;;;;;;28.95;12.95;;;-4.80;99.90;;;;;;5058623;28;20052;-71
2023/01/07 01:23:11;;;;;;;28.33;12.63;;;-4.70;99.90;;;;;;5070045;28;20052;-71
2023/01/07 01:25:39;;;;;;;31.38;11.05;;;-4.70;99.90;;;;;;5066469;28;20046;-71
2023/01/07 01:28:08;;;;;;;26.38;10.52;;;-4.70;99.90;;;;;;5059207;28;20473;-71
2023/01/07 01:30:35;;;;;;;18.98;9.20;;;-4.80;99.90;;;;;;5052567;28;20131;-71
2023/01/07 01:33:03;;;;;;;21.17;9.40;;;-4.80;99.90;;;;;;5062048;28;20052;-71
2023/01/07 01:35:30;;;;;;;22.92;9.60;;;-4.90;99.90;;;;;;5067391;28;20078;-71
2023/01/07 01:38:00;;;;;;;25.65;9.55;;;-4.90;99.90;;;;;;5081763;28;20140;-71
2023/01/07 01:40:31;;;;;;;25.60;9.60;;;-4.90;99.90;;;;;;5081144;28;20049;-71
2023/01/07 01:42:59;;;;;;;38.28;10.20;;;-4.90;99.90;;;;;;5066539;28;20059;-71
2023/01/07 01:45:28;;;;;;;20.27;9.13;;;-4.80;99.90;;;;;;5063269;28;20033;-71
2023/01/07 01:47:59;;;;;;;24.42;9.93;;;-4.80;99.90;;;;;;5064618;28;20725;-71
2023/01/07 01:50:32;;;;;;;20.65;8.85;;;-4.80;99.90;;;;;;5054583;28;20072;-71
2023/01/07 01:53:05;;;;;;;28.92;10.80;;;-4.80;99.90;;;;;;5066020;28;20080;-70
2023/01/07 01:55:38;;;;;;;21.88;10.60;;;-4.90;99.90;;;;;;5052276;28;20148;-70
2023/01/07 01:58:11;;;;;;;31.77;12.52;;;-4.90;99.90;;;;;;5068551;28;20072;-70
2023/01/07 02:00:41;;;;;;;30.85;11.57;;;-4.90;99.90;;;;;;5033511;28;20405;-70
2023/01/07 02:03:15;;;;;;;36.03;14.07;;;-4.90;99.90;;;;;;5061209;28;20500;-70
2023/01/07 02:05:42;;;;;;;;;;;-4.90;99.90;;;;;;5071036;28;20572;-71
2023/01/07 02:08:10;;;;;;;27.80;11.73;;;-4.90;99.90;;;;;;5050640;28;20015;-71
2023/01/07 02:10:39;;;;;;;36.20;11.50;;;-5.00;99.90;;;;;;5081399;28;20513;-70
2023/01/07 02:13:28;;;;;;;37.95;13.32;;;-4.90;99.90;;;;;;5062665;28;20040;-71
2023/01/07 02:16:05;;;;;;;31.17;12.25;;;-4.90;99.90;;;;;;5048641;28;20056;-71
2023/01/07 02:18:58;;;;;;;31.77;13.73;;;-4.90;99.90;;;;;;5059643;28;20114;-70
2023/01/07 02:21:38;;;;;;;;;;;-4.80;99.90;;;;;;5058337;28;20357;-70
2023/01/07 02:24:40;;;;;;;40.95;13.27;;;-4.80;99.90;;;;;;5063735;28;19924;-70
2023/01/07 02:27:23;;;;;;;28.00;11.35;;;-4.70;99.90;;;;;;5057172;28;20044;-70
2023/01/07 02:30:51;;;;;;;33.53;13.43;;;-4.70;99.90;;;;;;5065819;28;20059;-69
2023/01/07 02:33:39;;;;;;;27.55;11.63;;;-4.80;99.90;;;;;;5063958;28;20437;-70
2023/01/07 02:36:47;;;;;;;29.27;11.98;;;-4.70;99.90;;;;;;5060145;28;20059;-71
2023/01/07 02:39:46;;;;;;;32.20;10.88;;;-4.70;99.90;;;;;;5065846;28;20087;-71
2023/01/07 02:42:25;;;;;;;44.10;12.07;;;-4.60;99.90;;;;;;5057733;28;20052;-71
2023/01/07 02:45:02;;;;;;;31.60;12.18;;;-4.70;99.90;;;;;;5065198;28;20060;-70
2023/01/07 02:47:37;;;;;;;32.80;11.15;;;-4.70;99.90;;;;;;5067865;28;20385;-70
2023/01/07 02:50:09;;;;;;;37.03;11.05;;;-4.70;99.90;;;;;;5073029;28;20068;-70
2023/01/07 02:52:37;;;;;;;40.50;13.00;;;-4.70;99.90;;;;;;5065058;28;20056;-71
2023/01/07 02:55:10;;;;;;;37.85;13.45;;;-4.60;99.90;;;;;;5065947;28;20041;-70
2023/01/07 02:58:14;;;;;;;36.10;15.50;;;-4.70;99.90;;;;;;5060982;28;20052;-69
2023/01/07 03:01:24;;;;;;;42.63;15.82;;;-4.70;99.90;;;;;;5056347;28;20459;-71
2023/01/07 03:04:05;;;;;;;42.63;16.30;;;-4.80;99.90;;;;;;5020243;28;20061;-70
2023/01/07 03:06:55;;;;;;;40.10;15.30;;;-4.90;99.90;;;;;;5051490;28;20073;-70
2023/01/07 03:09:33;;;;;;;42.78;15.75;;;-4.90;99.90;;;;;;5063144;28;20079;-67
2023/01/07 03:12:09;;;;;;;42.20;15.35;;;-4.80;99.90;;;;;;5065531;28;20055;-66
2023/01/07 03:14:42;;;;;;;45.00;14.75;;;-4.80;99.90;;;;;;5069238;28;20052;-66
2023/01/07 03:17:17;;;;;;;31.10;12.98;;;-4.80;99.90;;;;;;5044068;28;20562;-66
2023/01/07 03:19:50;;;;;;;35.60;11.05;;;-4.80;99.90;;;;;;5046970;28;20057;-66
2023/01/07 03:22:22;;;;;;;33.13;12.55;;;-4.80;99.90;;;;;;5067946;28;20048;-66
2023/01/07 03:24:54;;;;;;;27.88;10.02;;;-4.80;99.90;;;;;;5068559;28;20044;-68
2023/01/07 03:27:23;;;;;;;24.58;10.75;;;-4.80;99.90;;;;;;5056248;28;20049;-66
2023/01/07 03:29:53;;;;;;;25.42;9.95;;;-4.80;99.90;;;;;;5069755;28;20051;-66
2023/01/07 03:32:27;;;;;;;17.85;8.88;;;-4.80;99.90;;;;;;5071662;28;20063;-66
2023/01/07 03:34:55;;;;;;;22.92;9.48;;;-4.80;99.90;;;;;;5064371;28;20501;-66
2023/01/07 03:37:26;;;;;;;25.52;9.93;;;-4.70;99.90;;;;;;5073294;28;20036;-67
2023/01/07 03:39:54;;;;;;;21.98;9.55;;;-4.70;99.90;;;;;;5059466;28;20049;-65
2023/01/07 03:42:39;;;;;;;28.92;9.98;;;-4.70;99.90;;;;;;5046726;28;20051;-66
2023/01/07 03:45:14;;;;;;;33.15;11.02;;;-4.70;99.90;;;;;;5067116;28;20062;-67
2023/01/07 03:47:47;;;;;;;25.15;10.43;;;-4.80;99.90;;;;;;5070750;28;20052;-66
2023/01/07 03:50:16;;;;;;;19.90;9.20;;;-4.80;99.90;;;;;;5072102;28;20504;-67
2023/01/07 03:52:47;;;;;;;22.30;7.63;;;-4.90;99.90;;;;;;5051041;28;20040;-66
2023/01/07 03:55:16;;;;;;;15.75;6.72;;;-4.90;99.90;;;;;;5061891;28;20045;-66
2023/01/07 03:57:43;;;;;;;13.98;6.55;;;-4.90;99.90;;;;;;5052653;28;20068;-66
2023/01/07 04:00:14;;;;;;;18.27;7.32;;;-4.90;99.90;;;;;;5066924;28;20575;-66
2023/01/07 04:02:45;;;;;;;14.57;6.85;;;-5.00;99.90;;;;;;5080379;28;20511;-66
2023/01/07 04:05:22;;;;;;;11.30;5.00;;;-4.90;99.90;;;;;;5071026;28;20444;-67
2023/01/07 04:07:52;;;;;;;10.98;4.88;;;-4.90;99.90;;;;;;5069532;28;20045;-65
2023/01/07 04:10:20;;;;;;;8.10;4.63;;;-4.90;99.90;;;;;;5068556;28;20051;-66
2023/01/07 04:12:48;;;;;;;9.10;4.68;;;-4.80;99.90;;;;;;5065153;28;20056;-66
2023/01/07 04:15:15;;;;;;;9.30;4.90;;;-4.80;99.90;;;;;;5058853;28;20136;-66
2023/01/07 04:17:43;;;;;;;9.77;4.85;;;-4.80;99.90;;;;;;5069699;28;20059;-67
2023/01/07 04:20:11;;;;;;;7.63;4.30;;;-4.80;99.90;;;;;;5065234;28;20044;-67
2023/01/07 04:22:38;;;;;;;8.18;4.43;;;-4.70;99.90;;;;;;5070062;28;20083;-66
2023/01/07 04:25:09;;;;;;;7.45;4.10;;;-4.70;99.90;;;;;;5066677;28;20139;-66
2023/01/07 04:27:38;;;;;;;7.10;4.18;;;-4.70;99.90;;;;;;5078854;28;20075;-67
2023/01/07 04:30:07;;;;;;;8.32;4.20;;;-4.70;99.90;;;;;;5064921;28;20068;-67
2023/01/07 04:32:35;;;;;;;9.80;4.65;;;-4.70;99.90;;;;;;5069410;28;20398;-65
2023/01/07 04:35:03;;;;;;;6.95;4.25;;;-4.70;99.90;;;;;;5069986;28;20042;-65
2023/01/07 04:37:31;;;;;;;6.88;5.00;;;-4.60;99.90;;;;;;5055048;28;20080;-66
2023/01/07 04:39:59;;;;;;;9.75;4.65;;;-4.60;99.90;;;;;;5062956;28;20098;-66
2023/01/07 04:42:29;;;;;;;7.20;4.30;;;-4.70;99.90;;;;;;5053193;28;20052;-67
2023/01/07 04:44:57;;;;;;;8.52;3.97;;;-4.70;99.90;;;;;;5056561;28;20536;-67
2023/01/07 04:47:24;;;;;;;7.90;4.35;;;-4.70;99.90;;;;;;5058236;28;20098;-70
2023/01/07 04:49:52;;;;;;;6.38;4.07;;;-4.70;99.90;;;;;;5058001;28;20048;-70
2023/01/07 04:52:19;;;;;;;11.85;4.75;;;-4.70;99.90;;;;;;5050514;28;20059;-71
2023/01/07 04:54:47;;;;;;;9.88;4.22;;;-4.70;99.90;;;;;;5051571;28;20056;-71
2023/01/07 04:57:14;;;;;;;9.02;4.07;;;-4.70;99.90;;;;;;5063028;28;20139;-70
2023/01/07 04:59:46;;;;;;;8.07;4.32;;;-4.70;99.90;;;;;;5056914;28;20052;-71
2023/01/07 05:02:14;;;;;;;7.55;3.40;;;-4.70;99.90;;;;;;5076977;28;20057;-70
2023/01/07 05:04:43;;;;;;;7.70;3.90;;;-4.70;99.90;;;;;;5085969;28;20087;-71
2023/01/07 05:07:12;;;;;;;6.63;3.13;;;-4.60;99.90;;;;;;5068752;28;20501;-71
2023/01/07 05:09:39;;;;;;;6.47;3.13;;;-4.60;99.90;;;;;;5074194;28;20044;-70
2023/01/07 05:12:08;;;;;;;7.60;3.60;;;-4.60;99.90;;;;;;5089198;28;20135;-71
2023/01/07 05:14:36;;;;;;;6.65;3.08;;;-4.60;99.90;;;;;;5078145;28;20052;-71
2023/01/07 05:17:05;;;;;;;8.60;3.20;;;-4.60;99.90;;;;;;5051467;28;20131;-70
2023/01/07 05:19:33;;;;;;;8.20;3.53;;;-4.50;99.90;;;;;;5070623;28;20050;-65
2023/01/07 05:22:01;;;;;;;6.60;2.78;;;-4.60;99.90;;;;;;5069096;28;20044;-66
2023/01/07 05:24:29;;;;;;;11.23;3.90;;;-4.60;99.90;;;;;;5069371;28;20052;-66
2023/01/07 05:26:56;;;;;;;5.13;2.90;;;-4.60;99.90;;;;;;5081340;28;20420;-67
2023/01/07 05:29:24;;;;;;;7.43;2.85;;;-4.60;99.90;;;;;;5050428;28;20445;-66
2023/01/07 05:31:51;;;;;;;4.97;3.13;;;-4.60;99.90;;;;;;5054046;28;20051;-67
2023/01/07 05:34:20;;;;;;;5.88;2.72;;;-4.60;99.90;;;;;;5071579;28;20068;-67
2023/01/07 05:36:48;;;;;;;4.07;2.65;;;-4.60;99.90;;;;;;5059337;28;20513;-66
2023/01/07 05:39:15;;;;;;;7.63;2.97;;;-4.60;99.90;;;;;;5050405;28;20079;-67
2023/01/07 05:41:43;;;;;;;4.82;3.50;;;-4.60;99.90;;;;;;5060711;28;20052;-65
2023/01/07 05:44:10;;;;;;;4.15;2.55;;;-4.60;99.90;;;;;;5067763;28;20048;-66
2023/01/07 05:46:38;;;;;;;7.00;3.50;;;-4.60;99.90;;;;;;5070959;28;20508;-66
2023/01/07 05:49:05;;;;;;;6.10;3.50;;;-4.60;99.90;;;;;;5071226;28;20185;-67
2023/01/07 05:51:35;;;;;;;7.47;3.50;;;-4.60;99.90;;;;;;5070403;28;20056;-67
2023/01/07 05:54:02;;;;;;;8.60;4.28;;;-4.70;99.90;;;;;;5069179;28;20097;-67
2023/01/07 05:56:30;;;;;;;7.90;4.13;;;-4.70;99.90;;;;;;5071256;28;20135;-66
2023/01/07 05:58:57;;;;;;;7.88;3.63;;;-4.60;99.90;;;;;;5068649;28;20090;-66
2023/01/07 06:01:25;;;;;;;8.70;4.18;;;-4.60;99.90;;;;;;5069953;28;20057;-66
2023/01/07 06:03:52;;;;;;;7.43;4.57;;;-4.70;99.90;;;;;;5070427;28;20052;-66
2023/01/07 06:06:20;;;;;;;14.10;5.65;;;-4.70;99.90;;;;;;5070294;28;20131;-67
2023/01/07 06:08:49;;;;;;;6.00;3.58;;;-4.80;99.90;;;;;;5068609;28;20079;-67
2023/01/07 06:11:16;;;;;;;7.78;3.85;;;-4.80;99.90;;;;;;5070064;28;20174;-71
2023/01/07 06:13:44;;;;;;;10.25;4.05;;;-4.90;99.90;;;;;;5057475;28;20095;-72
2023/01/07 06:16:13;;;;;;;8.40;4.05;;;-4.90;99.90;;;;;;5050919;28;20160;-71
2023/01/07 06:18:41;;;;;;;7.40;3.65;;;-4.90;99.90;;;;;;5047845;28;20037;-66
2023/01/07 06:21:08;;;;;;;8.95;3.67;;;-4.90;99.90;;;;;;5050698;28;20397;-66
2023/01/07 06:23:36;;;;;;;4.88;3.28;;;-4.90;99.90;;;;;;5067524;28;20052;-67
2023/01/07 06:26:05;;;;;;;8.70;3.58;;;-4.90;99.90;;;;;;5066574;28;20113;-67
2023/01/07 06:28:33;;;;;;;8.27;3.85;;;-4.80;99.90;;;;;;5069409;28;20052;-66
2023/01/07 06:31:01;;;;;;;6.85;3.70;;;-4.80;99.90;;;;;;5068858;28;20044;-67
2023/01/07 06:33:28;;;;;;;6.45;3.60;;;-4.80;99.90;;;;;;5070922;28;20052;-65
2023/01/07 06:35:56;;;;;;;6.78;3.85;;;-4.80;99.90;;;;;;5068714;28;20108;-69
2023/01/07 06:38:23;;;;;;;8.52;3.80;;;-4.80;99.90;;;;;;5070651;28;20547;-67
2023/01/07 06:40:51;;;;;;;7.65;3.20;;;-4.80;99.90;;;;;;5067481;28;20044;-67
2023/01/07 06:43:19;;;;;;;8.68;3.55;;;-4.80;99.90;;;;;;5069082;28;20051;-67
2023/01/07 06:45:47;;;;;;;6.57;3.15;;;-4.80;99.90;;;;;;5066982;28;20047;-68
2023/01/07 06:48:14;;;;;;;7.20;3.17;;;-4.70;99.90;;;;;;5064698;28;20094;-67
2023/01/07 06:50:42;;;;;;;7.35;3.30;;;-4.70;99.90;;;;;;5066195;28;20463;-68
2023/01/07 06:53:09;;;;;;;7.13;3.42;;;-4.70;99.90;;;;;;5064938;28;20052;-68
2023/01/07 06:55:37;;;;;;;7.07;3.58;;;-4.60;99.90;;;;;;5059112;28;20121;-68
2023/01/07 06:58:04;;;;;;;9.43;3.58;;;-4.60;99.90;;;;;;5069880;28;20382;-68
2023/01/07 07:00:33;;;;;;;8.80;4.07;;;-4.60;99.90;;;;;;5072388;28;20047;-67
2023/01/07 07:03:01;;;;;;;6.03;3.67;;;-4.60;99.90;;;;;;5062193;28;20090;-65
2023/01/07 07:05:28;;;;;;;8.38;3.63;;;-4.70;99.90;;;;;;5054213;28;20509;-67
2023/01/07 07:07:56;;;;;;;5.40;3.28;;;-4.70;99.90;;;;;;5060213;28;20500;-67
2023/01/07 07:10:24;;;;;;;7.60;3.38;;;-4.70;99.90;;;;;;5056363;28;20041;-68
2023/01/07 07:12:52;;;;;;;4.32;3.72;;;-4.60;99.90;;;;;;5064169;28;20139;-68
2023/01/07 07:15:19;;;;;;;10.50;3.83;;;-4.60;99.90;;;;;;5049928;28;20052;-67
2023/01/07 07:17:48;;;;;;;7.82;3.10;;;-4.60;99.90;;;;;;5057729;28;20135;-74
2023/01/07 07:20:16;;;;;;;7.03;3.78;;;-4.60;99.90;;;;;;5063350;28;20508;-68
2023/01/07 07:22:46;;;;;;;9.93;4.22;;;-4.60;99.90;;;;;;5057004;28;20047;-67
2023/01/07 07:25:18;;;;;;;6.22;3.70;;;-4.60;99.90;;;;;;5061860;28;20052;-68
2023/01/07 07:27:46;;;;;;;5.13;3.60;;;-4.70;99.90;;;;;;5059022;28;20808;-73
2023/01/07 07:30:15;;;;;;;8.20;3.03;;;-4.70;99.90;;;;;;5066085;28;20049;-73
2023/01/07 07:32:43;;;;;;;6.53;3.55;;;-4.70;99.90;;;;;;5063516;28;20135;-69
2023/01/07 07:35:13;;;;;;;6.97;3.22;;;-4.70;99.90;;;;;;5061784;28;20508;-68
2023/01/07 07:37:41;;;;;;;6.22;3.53;;;-4.80;99.90;;;;;;5062894;28;20500;-68
2023/01/07 07:40:11;;;;;;;6.53;2.75;;;-4.80;99.90;;;;;;5056023;28;20040;-68
2023/01/07 07:42:40;;;;;;;5.90;2.75;;;-4.80;99.90;;;;;;5062565;28;20045;-68
2023/01/07 07:45:09;;;;;;;5.90;3.17;;;-4.80;99.90;;;;;;5058170;28;20148;-69
2023/01/07 07:47:37;;;;;;;6.47;2.88;;;-4.70;99.90;;;;;;5067762;28;21063;-69
2023/01/07 07:50:05;;;;;;;7.60;3.42;;;-4.70;99.90;;;;;;5070079;28;20044;-68
2023/01/07 07:52:35;;;;;;;6.47;3.25;;;-4.60;99.90;;;;;;5065742;28;20143;-68
2023/01/07 07:55:02;;;;;;;6.00;3.38;;;-4.60;99.90;;;;;;5067610;28;20040;-73
2023/01/07 07:57:30;;;;;;;5.88;2.88;;;-4.60;99.90;;;;;;5058347;28;20064;-73
2023/01/07 07:59:58;;;;;;;7.05;3.38;;;-4.50;99.90;;;;;;5070211;28;20048;-73
2023/01/07 08:02:25;;;;;;;4.10;2.22;;;-4.50;99.90;;;;;;5071452;28;20074;-74
2023/01/07 08:04:53;;;;;;;7.22;3.10;;;-4.40;99.90;;;;;;5062350;28;20072;-68
2023/01/07 08:07:20;;;;;;;5.50;2.15;;;-4.40;99.90;;;;;;5051636;28;20087;-70
2023/01/07 08:09:49;;;;;;;2.75;1.85;;;-4.30;99.90;;;;;;5065548;28;20036;-69
2023/01/07 08:12:17;;;;;;;2.28;1.73;;;-4.30;99.90;;;;;;5064496;28;20067;-69
2023/01/07 08:14:44;;;;;;;3.22;2.10;;;-4.40;99.90;;;;;;5060855;28;20103;-69
2023/01/07 08:17:12;;;;;;;5.53;1.63;;;-4.30;99.90;;;;;;5056776;28;20131;-69
2023/01/07 08:19:39;;;;;;;3.53;1.60;;;-4.30;99.90;;;;;;5073046;28;20052;-69
2023/01/07 08:22:07;;;;;;;5.32;1.80;;;-4.30;99.90;;;;;;5064353;28;20040;-70
2023/01/07 08:24:35;;;;;;;6.30;2.35;;;-4.40;99.90;;;;;;5071671;28;20055;-70
2023/01/07 08:27:04;;;;;;;2.67;1.70;;;-4.50;99.90;;;;;;5068315;28;20048;-68
2023/01/07 08:29:31;;;;;;;6.28;2.00;;;-4.60;99.90;;;;;;5072713;28;20131;-69
2023/01/07 08:31:59;;;;;;;4.47;1.90;;;-4.50;99.90;;;;;;5063106;28;20533;-70
2023/01/07 08:34:27;;;;;;;3.63;1.75;;;-4.50;99.90;;;;;;5068854;28;20048;-69
2023/01/07 08:36:55;;;;;;;5.53;2.03;;;-4.50;99.90;;;;;;5057963;28;20517;-69
2023/01/07 08:39:22;;;;;;;5.65;2.92;;;-4.50;99.90;;;;;;5071243;28;20089;-69
2023/01/07 08:41:50;;;;;;;4.38;2.00;;;-4.60;99.90;;;;;;5075227;28;20098;-70
2023/01/07 08:44:19;;;;;;;8.10;2.35;;;-4.50;99.90;;;;;;5058041;28;20037;-68
2023/01/07 08:46:47;;;;;;;4.90;3.00;;;-4.50;99.90;;;;;;5060057;28;20044;-69
2023/01/07 08:49:14;;;;;;;8.02;3.70;;;-4.50;99.90;;;;;;5064941;28;20045;-69
2023/01/07 08:51:42;;;;;;;8.40;3.03;;;-4.40;99.90;;;;;;5058365;28;20520;-67
2023/01/07 08:54:10;;;;;;;13.65;3.55;;;-4.40;99.90;;;;;;5056737;28;20122;-67
2023/01/07 08:56:37;;;;;;;5.55;2.50;;;-4.40;99.90;;;;;;5068308;28;20060;-69
2023/01/07 08:59:05;;;;;;;10.98;2.60;;;-4.40;99.90;;;;;;5059410;28;20047;-70
2023/01/07 09:01:34;;;;;;;6.00;2.65;;;-4.30;99.90;;;;;;5061270;28;20055;-71
2023/01/07 09:04:02;;;;;;;7.70;2.75;;;-4.30;99.90;;;;;;5057776;28;20040;-71
2023/01/07 09:06:29;;;;;;;10.82;2.50;;;-4.30;99.90;;;;;;5062398;28;20040;-69
2023/01/07 09:08:57;;;;;;;7.68;2.75;;;-4.30;99.90;;;;;;5059321;28;20693;-70
2023/01/07 09:11:26;;;;;;;5.85;2.28;;;-4.30;99.90;;;;;;5059114;28;20083;-69
2023/01/07 09:13:56;;;;;;;6.18;2.05;;;-4.30;99.90;;;;;;5064278;28;20052;-70
2023/01/07 09:16:23;;;;;;;7.55;2.55;;;-4.30;99.90;;;;;;5064850;28;20041;-71
2023/01/07 09:18:52;;;;;;;5.38;2.00;;;-4.20;99.90;;;;;;5066267;28;20050;-70
2023/01/07 09:21:20;;;;;;;3.25;2.38;;;-4.30;99.90;;;;;;5063493;28;20059;-69
2023/01/07 09:23:47;;;;;;;3.10;1.90;;;-4.20;99.90;;;;;;5059616;28;20133;-70
2023/01/07 09:26:15;;;;;;;3.78;2.10;;;-4.20;99.90;;;;;;5059587;28;20059;-69
2023/01/07 09:28:42;;;;;;;11.25;2.60;;;-4.20;99.90;;;;;;5061875;28;20040;-70
2023/01/07 09:31:10;;;;;;;3.55;2.30;;;-4.10;99.90;;;;;;5063886;28;20151;-69
2023/01/07 09:33:39;;;;;;;5.07;2.25;;;-4.10;99.90;;;;;;5060166;28;20348;-69
2023/01/07 09:36:09;;;;;;;5.78;2.78;;;-4.10;99.90;;;;;;5061539;28;20110;-70
2023/01/07 09:38:36;;;;;;;4.10;2.28;;;-4.00;99.90;;;;;;5065325;28;20052;-69
2023/01/07 09:41:04;;;;;;;9.52;3.38;;;-4.00;99.90;;;;;;5061749;28;20041;-76
2023/01/07 09:43:36;;;;;;;10.73;4.45;;;-4.00;99.90;;;;;;5065017;28;20535;-73
2023/01/07 09:46:08;;;;;;;9.82;4.30;;;-4.10;99.90;;;;;;5059950;28;20052;-73
2023/01/07 09:48:40;;;;;;;8.65;3.63;;;-4.10;99.90;;;;;;5064510;28;20059;-74
2023/01/07 09:51:17;;;;;;;7.03;2.90;;;-4.00;99.90;;;;;;5056428;28;20197;-71
2023/01/07 09:53:50;;;;;;;7.38;3.50;;;-4.00;99.90;;;;;;5057901;28;20052;-73
2023/01/07 09:56:21;;;;;;;;;;;-4.00;99.90;;;;;;5057947;28;20052;-75
2023/01/07 09:58:49;;;;;;;6.90;2.60;;;-4.10;99.90;;;;;;5059326;28;20327;-75
2023/01/07 10:01:28;;;;;;;3.67;2.17;;;-4.10;99.90;;;;;;5063748;28;20429;-75
2023/01/07 10:04:13;;;;;;;2.05;1.80;;;-4.10;99.90;;;;;;5057695;28;20417;-74
2023/01/07 10:06:52;;;;;;;3.92;1.92;;;-4.00;99.90;;;;;;5056255;28;20451;-75
2023/01/07 10:09:35;;;;;;;3.72;1.77;;;-4.00;99.90;;;;;;5064280;28;20084;-75
2023/01/07 10:12:12;;;;;;;3.95;2.00;;;-4.00;99.90;;;;;;5064668;28;20052;-74
2023/01/07 10:15:09;;;;;;;4.43;2.25;;;-4.00;99.90;;;;;;5063002;28;20060;-74
2023/01/07 10:17:56;;;;;;;4.18;2.50;;;-4.10;99.90;;;;;;5047881;28;20110;-75
2023/01/07 10:20:33;;;;;;;5.85;2.50;;;-4.20;99.90;;;;;;5060203;28;20416;-75
2023/01/07 10:23:09;;;;;;;3.13;2.00;;;-4.20;99.90;;;;;;5056598;28;20053;-74
2023/01/07 10:25:41;;;;;;;5.38;2.30;;;-4.20;99.90;;;;;;5058045;28;20041;-73
2023/01/07 10:28:16;;;;;;;6.85;2.60;;;-4.10;99.90;;;;;;5060953;28;20044;-74
2023/01/07 10:30:50;;;;;;;4.57;2.08;;;-4.10;99.90;;;;;;5062583;28;20573;-75
2023/01/07 10:33:24;;;;;;;3.35;1.95;;;-4.00;99.90;;;;;;5060235;28;20112;-74
2023/01/07 10:36:01;;;;;;;4.60;2.53;;;-4.10;99.90;;;;;;5058780;28;20045;-74
2023/01/07 10:38:35;;;;;;;5.22;2.40;;;-4.10;99.90;;;;;;5056393;28;20049;-76
2023/01/07 10:41:09;;;;;;;5.75;3.20;;;-4.10;99.90;;;;;;5060101;28;20125;-73
2023/01/07 10:43:58;;;;;;;6.95;2.28;;;-4.10;99.90;;;;;;5060597;28;20060;-74
2023/01/07 10:46:46;;;;;;;4.93;2.50;;;-4.10;99.90;;;;;;5059013;28;20059;-73
2023/01/07 10:49:33;;;;;;;5.55;2.50;;;-4.10;99.90;;;;;;5055997;28;20045;-73
2023/01/07 10:52:18;;;;;;;5.72;2.28;;;-4.20;99.90;;;;;;5053786;28;20496;-74
2023/01/07 10:55:12;;;;;;;3.45;1.95;;;-4.30;99.90;;;;;;5059719;28;20616;-70
2023/01/07 10:57:42;;;;;;;4.70;2.45;;;-4.30;99.90;;;;;;5059081;28;20053;-70
2023/01/07 11:00:17;;;;;;;7.05;3.17;;;-4.30;99.90;;;;;;5057847;28;20051;-70
2023/01/07 11:02:50;;;;;;;4.32;2.00;;;-4.30;99.90;;;;;;5056989;28;20054;-75
2023/01/07 11:05:19;;;;;;;5.25;2.42;;;-4.40;99.90;;;;;;5060377;28;20572;-74
2023/01/07 11:07:50;;;;;;;4.30;2.40;;;-4.40;99.90;;;;;;5058672;28;20056;-73
2023/01/07 11:10:23;;;;;;;4.00;1.92;;;-4.40;99.90;;;;;;5061057;28;20044;-68
2023/01/07 11:12:53;;;;;;;7.25;2.05;;;-4.40;99.90;;;;;;5060216;28;20477;-69
2023/01/07 11:15:27;;;;;;;3.30;1.88;;;-4.40;99.90;;;;;;5062036;28;20555;-69
2023/01/07 11:17:58;;;;;;;4.53;3.03;;;-4.50;99.90;;;;;;5053414;28;20054;-70
2023/01/07 11:20:44;;;;;;;5.80;1.90;;;-4.50;99.90;;;;;;5053883;28;20148;-69
2023/01/07 11:23:29;;;;;;;4.30;1.80;;;-4.60;99.90;;;;;;5055360;28;20052;-74
2023/01/07 11:26:12;;;;;;;3.78;2.22;;;-4.60;99.90;;;;;;5054691;28;20409;-73
2023/01/07 11:28:53;;;;;;;3.90;2.47;;;-4.60;99.90;;;;;;5054615;28;20044;-74
2023/01/07 11:31:23;;;;;;;4.97;1.70;;;-4.60;99.90;;;;;;5057766;28;20044;-75
2023/01/07 11:33:54;;;;;;;5.05;2.33;;;-4.60;99.90;;;;;;5058125;28;20709;-74
2023/01/07 11:36:40;;;;;;;6.45;2.40;;;-4.60;99.90;;;;;;5055740;28;20591;-74
2023/01/07 11:39:11;;;;;;;6.22;2.00;;;-4.60;99.90;;;;;;5064726;28;20634;-75
2023/01/07 11:41:53;;;;;;;4.00;1.90;;;-4.60;99.90;;;;;;5063164;28;20150;-74
2023/01/07 11:44:21;;;;;;;3.83;1.65;;;-4.50;99.90;;;;;;5064685;28;20086;-75
2023/01/07 11:46:48;;;;;;;3.22;2.00;;;-4.60;99.90;;;;;;5042987;28;20135;-74
2023/01/07 11:49:27;;;;;;;7.40;2.00;;;-4.60;99.90;;;;;;5062149;28;20036;-74
2023/01/07 11:51:55;;;;;;;5.28;2.28;;;-4.70;99.90;;;;;;5061673;28;20381;-76
2023/01/07 11:54:25;;;;;;;3.10;1.90;;;-4.70;99.90;;;;;;5064376;28;20139;-73
2023/01/07 11:57:10;;;;;;;3.60;1.70;;;-4.80;99.90;;;;;;5066440;28;20048;-73
2023/01/07 11:59:38;;;;;;;3.65;1.80;;;-4.80;99.90;;;;;;5063188;28;20048;-71
2023/01/07 12:02:25;;;;;;;5.00;2.40;;;-4.90;99.90;;;;;;5061576;28;20458;-71
2023/01/07 12:04:52;;;;;;;2.85;1.50;;;-5.00;99.90;;;;;;5064003;28;20046;-68
2023/01/07 12:07:22;;;;;;;1.88;1.30;;;-5.00;99.90;;;;;;5065123;28;20143;-74
2023/01/07 12:09:50;;;;;;;4.80;1.90;;;-5.10;99.90;;;;;;5059778;28;20572;-71
2023/01/07 12:12:33;;;;;;;3.83;1.60;;;-5.10;99.90;;;;;;5063372;28;20063;-69
2023/01/07 12:15:04;;;;;;;4.47;1.85;;;-5.10;99.90;;;;;;5059352;28;20566;-69
2023/01/07 12:17:35;;;;;;;5.30;1.73;;;-5.10;99.90;;;;;;5063513;28;20044;-73
2023/01/07 12:20:38;;;;;;;2.75;1.88;;;-5.20;99.90;;;;;;5046184;28;20453;-74
2023/01/07 12:23:21;;;;;;;3.17;1.90;;;-5.30;99.90;;;;;;5060024;28;20048;-74
2023/01/07 12:25:59;;;;;;;3.70;2.10;;;-5.30;99.90;;;;;;5051858;28;20052;-72
2023/01/07 12:28:46;;;;;;;4.90;2.30;;;-5.30;99.90;;;;;;5062322;28;20075;-74
2023/01/07 12:31:31;;;;;;;4.72;2.30;;;-5.40;99.90;;;;;;5061099;28;20048;-73
2023/01/07 12:34:09;;;;;;;5.60;2.35;;;-5.40;99.90;;;;;;5064452;28;20492;-73
2023/01/07 12:36:46;;;;;;;2.95;1.80;;;-5.50;99.90;;;;;;5059273;28;20056;-74
2023/01/07 12:39:20;;;;;;;3.97;2.20;;;-5.50;99.90;;;;;;5065578;28;20064;-73
2023/01/07 12:41:56;;;;;;;5.97;2.25;;;-5.60;99.90;;;;;;5060541;28;20044;-73
2023/01/07 12:44:26;;;;;;;2.13;1.70;;;-5.60;99.90;;;;;;5061646;28;20043;-73
2023/01/07 12:47:04;;;;;;;4.15;1.80;;;-5.60;99.90;;;;;;5061626;28;20049;-75
2023/01/07 12:49:38;;;;;;;4.93;2.25;;;-5.50;99.90;;;;;;5062465;28;20048;-73
2023/01/07 12:52:14;;;;;;;6.32;2.55;;;-5.50;99.90;;;;;;5058997;28;20660;-74
2023/01/07 12:54:51;;;;;;;3.38;2.20;;;-5.50;99.90;;;;;;5061960;28;20086;-72
2023/01/07 12:57:25;;;;;;;6.45;2.25;;;-5.60;99.90;;;;;;5061928;28;20456;-68
2023/01/07 13:00:04;;;;;;;5.88;4.03;;;-5.60;99.90;;;;;;5060400;28;20077;-68
2023/01/07 13:02:39;;;;;;;4.65;2.42;;;-5.60;99.90;;;;;;5058787;28;20143;-69
2023/01/07 13:05:14;;;;;;;5.28;2.85;;;-5.60;99.90;;;;;;5058739;28;20118;-72
2023/01/07 13:07:57;;;;;;;5.00;2.55;;;-5.60;99.90;;;;;;5060340;28;20135;-71